createdAt,value
2017-04-26T00:01:04.500Z,0
2017-04-26T00:11:16.461Z,0
2017-04-26T00:21:28.341Z,0
2017-04-26T00:31:40.264Z,0
2017-04-26T00:41:52.197Z,0
2017-04-26T00:52:04.054Z,0
2017-04-26T01:02:15.928Z,0
2017-04-26T01:12:27.999Z,0
2017-04-26T01:22:39.994Z,0
2017-04-26T01:32:51.991Z,0
2017-04-26T01:43:03.992Z,0
2017-04-26T01:53:15.976Z,0
2017-04-26T02:03:27.979Z,0
2017-04-26T02:13:39.995Z,0
2017-04-26T02:23:52.052Z,0
2017-04-26T02:34:04.193Z,0
2017-04-26T02:44:16.306Z,0
2017-04-26T02:54:28.452Z,0
2017-04-26T03:04:40.452Z,0
2017-04-26T03:14:52.547Z,0
2017-04-26T03:25:04.686Z,0
2017-04-26T03:35:16.847Z,0
2017-04-26T03:45:28.992Z,0
2017-04-26T03:55:41.183Z,0
2017-04-26T04:05:53.353Z,10
2017-04-26T04:16:05.494Z,25
2017-04-26T04:26:17.617Z,45
2017-04-26T04:36:29.698Z,75
2017-04-26T04:46:41.736Z,105
2017-04-26T04:56:53.656Z,125
2017-04-26T05:07:05.560Z,150
2017-04-26T05:17:17.354Z,180
2017-04-26T05:27:29.042Z,205
2017-04-26T05:37:40.716Z,250
2017-04-26T05:47:52.314Z,250
2017-04-26T05:58:03.892Z,330
2017-04-26T06:08:15.408Z,320
2017-04-26T06:18:26.825Z,330
2017-04-26T06:28:38.152Z,370
2017-04-26T06:38:49.316Z,460
2017-04-26T06:49:00.385Z,435
2017-04-26T06:59:11.405Z,360
2017-04-26T07:09:22.418Z,510
2017-04-26T07:19:33.174Z,695
2017-04-26T07:29:43.808Z,715
2017-04-26T07:39:54.344Z,825
2017-04-26T07:50:04.758Z,1025
2017-04-26T08:00:15.017Z,1025
2017-04-26T08:10:25.313Z,1100
2017-04-26T08:20:35.501Z,1265
2017-04-26T08:30:45.525Z,1355
2017-04-26T08:40:55.201Z,1875
2017-04-26T08:51:04.470Z,1480
2017-04-26T09:01:13.604Z,3130
2017-04-26T09:11:22.501Z,1000
2017-04-26T09:21:31.500Z,560
2017-04-26T09:31:41.153Z,550
2017-04-26T09:41:51.080Z,480
2017-04-26T09:52:01.155Z,560
2017-04-26T10:02:11.265Z,580
2017-04-26T10:12:21.423Z,700
2017-04-26T10:22:31.656Z,830
2017-04-26T10:32:41.783Z,3725
2017-04-26T10:42:51.393Z,4060
2017-04-26T10:53:00.226Z,1320
2017-04-26T11:03:09.139Z,3900
2017-04-26T11:13:17.951Z,1730
2017-04-26T11:23:26.741Z,1675
2017-04-26T11:33:35.463Z,4070
2017-04-26T11:43:43.949Z,1140
2017-04-26T11:53:52.818Z,585
2017-04-26T12:04:02.231Z,1045
2017-04-26T12:14:12.032Z,1010
2017-04-26T12:19:44.720Z,1305
2017-04-26T12:21:19.374Z,1485
2017-04-26T12:31:29.065Z,1520
2017-04-26T12:41:38.696Z,1760
2017-04-26T12:51:48.088Z,3295
2017-04-26T13:01:57.119Z,3345
2017-04-26T13:12:05.986Z,3145
2017-04-26T13:22:14.744Z,2890
2017-04-26T13:32:23.329Z,3015
2017-04-26T13:42:31.767Z,2915
2017-04-26T13:52:40.194Z,2855
2017-04-26T14:02:48.961Z,705
2017-04-26T14:12:58.295Z,2600
2017-04-26T14:23:07.637Z,860
2017-04-26T14:33:17.298Z,670
2017-04-26T14:43:27.293Z,480
2017-04-26T14:53:37.429Z,605
2017-04-26T15:03:47.596Z,980
2017-04-26T15:13:57.592Z,1900
2017-04-26T15:24:06.887Z,1710
2017-04-26T15:34:15.812Z,495
2017-04-26T15:44:25.020Z,490
2017-04-26T15:54:34.281Z,1295
2017-04-26T16:04:43.202Z,1210
2017-04-26T16:14:51.999Z,1065
2017-04-26T16:25:00.727Z,805
2017-04-26T16:35:09.512Z,355
2017-04-26T16:45:18.767Z,315
2017-04-26T16:55:28.477Z,240
2017-04-26T17:05:38.522Z,145
2017-04-26T17:15:48.813Z,95
2017-04-26T17:25:59.276Z,90
2017-04-26T17:36:09.866Z,115
2017-04-26T17:46:20.614Z,105
2017-04-26T17:56:31.448Z,85
2017-04-26T18:06:42.379Z,60
2017-04-26T18:16:53.399Z,40
2017-04-26T18:27:04.441Z,30
2017-04-26T18:37:15.449Z,25
2017-04-26T18:47:26.478Z,10
2017-04-26T18:57:37.530Z,0
2017-04-26T19:07:48.604Z,0
2017-04-26T19:17:59.785Z,0
2017-04-26T19:28:10.941Z,0
2017-04-26T19:38:22.155Z,0
2017-04-26T19:48:33.440Z,0
2017-04-26T19:58:44.728Z,0
2017-04-26T20:08:56.007Z,0
2017-04-26T20:19:07.344Z,0
2017-04-26T20:29:18.707Z,0
2017-04-26T20:39:30.142Z,0
2017-04-26T20:49:41.511Z,0
2017-04-26T20:59:52.906Z,0
2017-04-26T21:10:04.329Z,0
2017-04-26T21:20:15.745Z,0
2017-04-26T21:30:27.206Z,0
2017-04-26T21:40:38.698Z,0
2017-04-26T21:50:50.189Z,0
2017-04-26T22:01:01.780Z,0
2017-04-26T22:11:13.450Z,0
2017-04-26T22:21:25.122Z,0
2017-04-26T22:31:36.955Z,0
2017-04-26T22:41:48.781Z,0
2017-04-26T22:52:00.657Z,0
2017-04-26T23:02:12.390Z,0
2017-04-26T23:12:24.158Z,0
2017-04-26T23:22:35.902Z,0
2017-04-26T23:32:47.710Z,0
2017-04-26T23:42:59.594Z,0
2017-04-26T23:53:11.434Z,0
